Leiter, Wyoming
Current Conditions -  °F | °C
As of 3:53 AM on Saturday 20 Dec 2014 (Local Time) from KBYG Reporting Station
Broken Clouds Broken Clouds  
Wind Chill: 25°   Ceiling: 8000
Heat Index: 31°   Visibility: 10mi
Dew Point: 20°   Wind: 6mph
Humidity: 64%   Direction: 240°WSW
Pressure: 29.91"   Gusts: NA
Location:  44.72°N, 106.27°W
Report Text: KBYG 201053Z AUTO 24005KT 10SM BKN080 M01/M07 A2991 RMK AO2 SLP142 T10061067
Loading
Personal Weather Stations






























Interactive Weather Map New forecast layout! Learn more

10-Day Weather Forecast

Advertisements
Track Severe Weather on mobile